createdAt,value
2023-01-27T00:00:35.882Z,41.50
2023-01-27T00:03:02.572Z,40.53
2023-01-27T00:05:29.411Z,45.38
2023-01-27T00:07:58.393Z,38.97
2023-01-27T00:10:26.149Z,43.50
2023-01-27T00:13:11.904Z,43.08
2023-01-27T00:15:39.584Z,45.08
2023-01-27T00:18:06.727Z,41.28
2023-01-27T00:20:53.047Z,38.22
2023-01-27T00:23:40.368Z,40.60
2023-01-27T00:26:09.806Z,36.55
2023-01-27T00:28:37.961Z,40.25
2023-01-27T00:31:06.027Z,39.67
2023-01-27T00:33:32.808Z,37.17
2023-01-27T00:36:07.276Z,41.30
2023-01-27T00:38:41.945Z,38.72
2023-01-27T00:41:21.213Z,38.97
2023-01-27T00:43:49.825Z,37.90
2023-01-27T00:46:18.175Z,42.13
2023-01-27T00:48:45.431Z,41.45
2023-01-27T00:51:13.638Z,39.40
2023-01-27T00:53:41.406Z,37.88
2023-01-27T00:56:08.483Z,36.58
2023-01-27T00:58:35.643Z,34.20
2023-01-27T01:01:04.769Z,39.08
2023-01-27T01:03:33.490Z,39.30
2023-01-27T01:06:06.465Z,37.47
2023-01-27T01:08:34.650Z,33.40
2023-01-27T01:11:01.482Z,33.20
2023-01-27T01:13:28.595Z,37.08
2023-01-27T01:15:55.825Z,40.08
2023-01-27T01:18:23.144Z,33.67
2023-01-27T01:20:49.775Z,34.13
2023-01-27T01:23:16.661Z,34.05
2023-01-27T01:25:43.509Z,35.78
2023-01-27T01:28:10.532Z,33.20
2023-01-27T01:30:38.225Z,28.30
2023-01-27T01:33:04.985Z,35.47
2023-01-27T01:35:32.226Z,32.25
2023-01-27T01:37:59.126Z,29.33
2023-01-27T01:40:26.100Z,29.13
2023-01-27T01:43:11.373Z,31.50
2023-01-27T01:45:44.705Z,30.95
2023-01-27T01:48:23.305Z,32.38
2023-01-27T01:51:10.748Z,33.05
2023-01-27T01:53:43.703Z,29.80
2023-01-27T01:56:23.059Z,30.60
2023-01-27T01:58:51.106Z,31.35
2023-01-27T02:01:19.289Z,31.73
2023-01-27T02:03:51.036Z,29.95
2023-01-27T02:06:17.972Z,28.83
2023-01-27T02:08:47.607Z,27.85
2023-01-27T02:11:14.434Z,30.35
2023-01-27T02:13:42.921Z,29.08
2023-01-27T02:16:11.189Z,29.15
2023-01-27T02:18:40.614Z,28.83
2023-01-27T02:21:08.945Z,29.17
2023-01-27T02:23:44.103Z,32.15
2023-01-27T02:26:22.884Z,28.98
2023-01-27T02:28:55.903Z,28.27
2023-01-27T02:31:22.958Z,28.85
2023-01-27T02:33:50.159Z,29.15
2023-01-27T02:36:18.531Z,25.70
2023-01-27T02:38:55.265Z,29.45
2023-01-27T02:41:30.657Z,29.55
2023-01-27T02:43:57.660Z,26.38
2023-01-27T02:46:24.302Z,25.00
2023-01-27T02:48:51.335Z,24.55
2023-01-27T02:51:17.923Z,23.73
2023-01-27T02:53:44.710Z,27.08
2023-01-27T02:56:11.402Z,23.20
2023-01-27T02:58:38.503Z,23.08
2023-01-27T03:01:05.350Z,20.88
2023-01-27T03:03:32.122Z,21.98
2023-01-27T03:05:58.838Z,23.95
2023-01-27T03:08:25.551Z,24.48
2023-01-27T03:10:53.469Z,23.52
2023-01-27T03:13:24.152Z,19.52
2023-01-27T03:16:09.288Z,20.50
2023-01-27T03:18:36.494Z,22.50
2023-01-27T03:21:05.521Z,21.05
2023-01-27T03:23:34.717Z,20.90
2023-01-27T03:26:05.830Z,21.40
2023-01-27T03:28:32.656Z,15.93
2023-01-27T03:31:08.548Z,21.73
2023-01-27T03:33:35.582Z,22.80
2023-01-27T03:36:21.761Z,19.33
2023-01-27T03:39:07.313Z,19.02
2023-01-27T03:41:53.316Z,23.00
2023-01-27T03:44:38.788Z,20.17
2023-01-27T03:49:32.157Z,18.30
2023-01-27T03:51:59.000Z,16.60
2023-01-27T03:54:25.773Z,19.15
2023-01-27T03:56:52.362Z,18.58
2023-01-27T03:59:18.951Z,17.95
2023-01-27T04:01:46.111Z,17.08
2023-01-27T04:04:31.323Z,15.07
2023-01-27T04:07:00.642Z,18.67
2023-01-27T04:09:29.964Z,15.95
2023-01-27T04:11:59.716Z,17.02
2023-01-27T04:14:38.158Z,16.02
2023-01-27T04:17:07.579Z,15.85
2023-01-27T04:19:34.274Z,14.93
2023-01-27T04:22:01.784Z,13.82
2023-01-27T04:24:29.075Z,15.80
2023-01-27T04:27:05.357Z,14.65
2023-01-27T04:29:34.913Z,13.80
2023-01-27T04:32:03.473Z,14.20
2023-01-27T04:34:30.335Z,17.10
2023-01-27T04:36:57.395Z,15.60
2023-01-27T04:39:25.327Z,18.13
2023-01-27T04:41:52.392Z,18.30
2023-01-27T04:44:20.290Z,16.73
2023-01-27T04:46:47.223Z,17.45
2023-01-27T04:49:14.008Z,15.70
2023-01-27T04:51:40.743Z,16.45
2023-01-27T04:54:07.538Z,16.88
2023-01-27T04:56:39.981Z,18.15
2023-01-27T04:59:12.487Z,19.45
2023-01-27T05:01:39.169Z,17.88
2023-01-27T05:04:05.945Z,18.30
2023-01-27T05:06:33.132Z,15.98
2023-01-27T05:08:59.833Z,16.70
2023-01-27T05:11:26.470Z,19.52
2023-01-27T05:13:53.412Z,16.60
2023-01-27T05:16:21.903Z,17.42
2023-01-27T05:18:49.733Z,14.98
2023-01-27T05:21:19.742Z,16.08
2023-01-27T05:23:47.556Z,14.45
2023-01-27T05:26:26.405Z,16.52
2023-01-27T05:28:53.944Z,15.98
2023-01-27T05:31:23.668Z,14.52
2023-01-27T05:33:52.552Z,17.67
2023-01-27T05:36:20.734Z,17.15
2023-01-27T05:38:47.661Z,13.48
2023-01-27T05:41:15.701Z,16.02
2023-01-27T05:43:44.161Z,14.35
2023-01-27T05:46:14.156Z,16.15
2023-01-27T05:48:44.090Z,15.27
2023-01-27T05:51:14.539Z,13.32
2023-01-27T05:53:41.844Z,13.77
2023-01-27T05:56:10.532Z,18.60
2023-01-27T05:58:38.160Z,14.82
2023-01-27T06:01:08.163Z,14.45
2023-01-27T06:03:35.139Z,16.20
2023-01-27T06:06:01.919Z,13.68
2023-01-27T06:08:28.621Z,16.73
2023-01-27T06:10:55.462Z,14.98
2023-01-27T06:13:23.669Z,15.13
2023-01-27T06:15:51.328Z,14.93
2023-01-27T06:18:19.251Z,17.52
2023-01-27T06:20:46.127Z,18.05
2023-01-27T06:23:14.241Z,17.38
2023-01-27T06:25:46.576Z,17.10
2023-01-27T06:28:27.781Z,16.17
2023-01-27T06:30:55.245Z,16.23
2023-01-27T06:33:22.095Z,17.50
2023-01-27T06:35:49.109Z,15.95
2023-01-27T06:38:15.735Z,14.05
2023-01-27T06:40:43.166Z,15.85
2023-01-27T06:43:13.620Z,17.08
2023-01-27T06:45:40.588Z,13.95
2023-01-27T06:48:08.425Z,16.10
2023-01-27T06:50:35.600Z,16.85
2023-01-27T06:53:05.097Z,14.80
2023-01-27T06:55:31.993Z,14.50
2023-01-27T06:57:58.829Z,25.75
2023-01-27T07:00:25.505Z,16.58
2023-01-27T07:02:55.653Z,17.60
2023-01-27T07:05:22.458Z,38.40
2023-01-27T07:07:49.117Z,18.52
2023-01-27T07:10:16.483Z,13.57
2023-01-27T07:12:43.376Z,15.13
2023-01-27T07:15:11.135Z,19.05
2023-01-27T07:17:38.548Z,15.02
2023-01-27T07:20:07.947Z,24.77
2023-01-27T07:22:34.791Z,17.08
2023-01-27T07:25:02.204Z,13.85
2023-01-27T07:27:29.513Z,14.38
2023-01-27T07:29:57.204Z,12.75
2023-01-27T07:32:25.882Z,15.30
2023-01-27T07:34:54.891Z,13.55
2023-01-27T07:37:21.601Z,15.60
2023-01-27T07:39:48.183Z,13.85
2023-01-27T07:42:14.880Z,16.33
2023-01-27T07:44:41.551Z,14.75
2023-01-27T07:47:08.202Z,17.42
2023-01-27T07:49:34.850Z,14.98
2023-01-27T07:52:01.490Z,18.58
2023-01-27T07:54:28.211Z,14.18
2023-01-27T07:56:54.931Z,22.65
2023-01-27T07:59:21.624Z,18.92
2023-01-27T08:01:48.501Z,15.85
2023-01-27T08:04:15.464Z,17.08
2023-01-27T08:06:42.254Z,18.27
2023-01-27T08:09:08.980Z,18.08
2023-01-27T08:11:35.985Z,17.23
2023-01-27T08:14:03.193Z,19.88
2023-01-27T08:16:30.037Z,17.75
2023-01-27T08:18:56.702Z,21.25
2023-01-27T08:21:25.161Z,20.42
2023-01-27T08:23:54.012Z,16.80
2023-01-27T08:26:20.702Z,15.90
2023-01-27T08:28:47.406Z,17.08
2023-01-27T08:31:16.117Z,16.65
2023-01-27T08:33:50.055Z,19.67
2023-01-27T08:36:18.055Z,16.02
2023-01-27T08:38:45.336Z,19.42
2023-01-27T08:41:15.191Z,16.00
2023-01-27T08:43:42.205Z,16.70
2023-01-27T08:46:09.635Z,16.77
2023-01-27T08:48:37.506Z,16.30
2023-01-27T08:51:05.863Z,17.20
2023-01-27T08:53:33.329Z,15.30
2023-01-27T08:56:05.100Z,19.25
2023-01-27T08:58:33.333Z,16.02
2023-01-27T09:01:05.705Z,14.35
2023-01-27T09:03:34.127Z,11.32
2023-01-27T09:06:01.623Z,12.25
2023-01-27T09:08:28.661Z,11.23
2023-01-27T09:10:55.312Z,13.23
2023-01-27T09:13:22.247Z,12.43
2023-01-27T09:15:52.551Z,11.85
2023-01-27T09:18:20.030Z,10.43
2023-01-27T09:20:46.879Z,11.30
2023-01-27T09:23:13.714Z,11.20
2023-01-27T09:25:40.344Z,10.63
2023-01-27T09:28:09.861Z,12.07
2023-01-27T09:30:36.776Z,10.93
2023-01-27T09:33:03.657Z,11.45
2023-01-27T09:35:36.164Z,10.63
2023-01-27T09:38:05.571Z,11.82
2023-01-27T09:40:55.619Z,11.77
2023-01-27T09:43:37.259Z,10.98
2023-01-27T09:46:36.574Z,10.40
2023-01-27T09:49:32.590Z,9.80
2023-01-27T09:52:41.773Z,11.48
2023-01-27T09:55:40.587Z,10.10
2023-01-27T09:58:16.659Z,10.90
2023-01-27T10:00:46.248Z,10.20
2023-01-27T10:03:37.489Z,10.07
2023-01-27T10:06:34.768Z,11.25
2023-01-27T10:09:11.088Z,10.68
2023-01-27T10:12:11.974Z,15.40
2023-01-27T10:14:47.537Z,9.30
2023-01-27T10:17:55.130Z,8.25
2023-01-27T10:20:43.632Z,8.57
2023-01-27T10:23:25.235Z,8.88
2023-01-27T10:26:08.419Z,9.20
2023-01-27T10:28:37.645Z,9.18
2023-01-27T10:31:36.289Z,7.95
2023-01-27T10:34:25.286Z,8.40
2023-01-27T10:37:04.062Z,14.82
2023-01-27T10:39:46.805Z,17.30
2023-01-27T10:42:45.204Z,10.10
2023-01-27T10:45:22.768Z,8.73
2023-01-27T10:47:58.381Z,7.25
2023-01-27T10:50:39.832Z,8.32
2023-01-27T10:53:19.957Z,7.00
2023-01-27T10:56:02.801Z,8.10
2023-01-27T10:58:47.609Z,7.35
2023-01-27T11:01:21.474Z,7.35
2023-01-27T11:04:00.674Z,5.30
2023-01-27T11:06:36.441Z,5.35
2023-01-27T11:09:16.086Z,5.00
2023-01-27T11:11:44.587Z,4.53
2023-01-27T11:14:22.614Z,3.47
2023-01-27T11:16:52.491Z,4.93
2023-01-27T11:19:39.935Z,3.20
2023-01-27T11:22:23.193Z,4.30
2023-01-27T11:25:01.112Z,3.05
2023-01-27T11:27:49.424Z,2.78
2023-01-27T11:30:22.194Z,2.95
2023-01-27T11:33:09.859Z,3.05
2023-01-27T11:35:36.562Z,1.92
2023-01-27T11:38:14.912Z,2.10
2023-01-27T11:40:42.424Z,1.60
2023-01-27T11:43:17.458Z,2.00
2023-01-27T11:45:46.249Z,2.25
2023-01-27T11:48:16.967Z,1.88
2023-01-27T11:50:44.760Z,12.02
2023-01-27T11:53:23.064Z,2.25
2023-01-27T11:55:54.979Z,1.98
2023-01-27T11:58:34.089Z,3.33
2023-01-27T12:01:05.560Z,1.50
2023-01-27T12:04:00.133Z,1.98
2023-01-27T12:06:54.407Z,2.50
2023-01-27T12:09:30.377Z,1.20
2023-01-27T12:12:11.359Z,1.40
2023-01-27T12:14:38.109Z,1.73
2023-01-27T12:17:06.718Z,2.42
2023-01-27T12:19:40.114Z,1.20
2023-01-27T12:22:28.865Z,1.83
2023-01-27T12:25:00.811Z,3.63
2023-01-27T12:27:31.177Z,1.35
2023-01-27T12:30:02.868Z,0.90
2023-01-27T12:32:42.272Z,0.90
2023-01-27T12:35:21.732Z,0.70
2023-01-27T12:37:50.022Z,0.88
2023-01-27T12:40:25.092Z,0.95
2023-01-27T12:45:40.900Z,0.60
2023-01-27T12:48:10.507Z,0.60
2023-01-27T12:50:40.256Z,1.67
2023-01-27T12:53:13.156Z,0.60
2023-01-27T12:56:00.089Z,0.80
2023-01-27T12:58:34.639Z,2.88
2023-01-27T13:01:21.350Z,1.80
2023-01-27T13:04:12.453Z,0.65
2023-01-27T13:06:44.625Z,0.60
2023-01-27T13:09:41.203Z,1.60
2023-01-27T13:12:20.481Z,0.80
2023-01-27T13:14:52.826Z,0.70
2023-01-27T13:17:48.772Z,0.68
2023-01-27T13:23:17.530Z,0.52
2023-01-27T13:26:14.266Z,0.50
2023-01-27T13:28:52.050Z,0.73
2023-01-27T13:31:57.215Z,0.70
2023-01-27T13:34:43.110Z,1.00
2023-01-27T13:37:31.414Z,1.10
2023-01-27T13:40:14.634Z,0.90
2023-01-27T13:42:44.177Z,0.90
2023-01-27T13:45:15.546Z,1.15
2023-01-27T13:47:53.400Z,1.30
2023-01-27T13:50:23.033Z,1.35
2023-01-27T13:52:58.084Z,0.70
2023-01-27T13:55:47.711Z,2.03
2023-01-27T13:58:21.367Z,1.30
2023-01-27T14:01:06.912Z,2.17
2023-01-27T14:06:23.270Z,1.52
2023-01-27T14:09:03.618Z,4.10
2023-01-27T14:11:40.903Z,1.10
2023-01-27T14:14:24.041Z,2.05
2023-01-27T14:17:15.038Z,1.00
2023-01-27T14:20:12.372Z,1.60
2023-01-27T14:22:56.629Z,1.67
2023-01-27T14:25:53.196Z,2.05
2023-01-27T14:28:43.787Z,2.33
2023-01-27T14:31:15.387Z,3.13
2023-01-27T14:33:54.493Z,1.10
2023-01-27T14:36:31.095Z,0.70
2023-01-27T14:39:16.650Z,1.10
2023-01-27T14:44:43.609Z,1.08
2023-01-27T14:47:23.423Z,1.77
2023-01-27T14:50:08.218Z,2.97
2023-01-27T14:52:54.173Z,1.27
2023-01-27T14:55:56.939Z,1.33
2023-01-27T14:58:41.937Z,0.63
2023-01-27T15:01:27.101Z,2.40
2023-01-27T15:04:41.990Z,0.75
2023-01-27T15:07:16.576Z,0.77
2023-01-27T15:10:15.140Z,2.03
2023-01-27T15:12:56.525Z,1.92
2023-01-27T15:15:47.548Z,2.08
2023-01-27T15:18:17.058Z,1.05
2023-01-27T15:20:56.775Z,3.15
2023-01-27T15:23:26.190Z,1.75
2023-01-27T15:26:00.331Z,1.10
2023-01-27T15:28:32.165Z,1.38
2023-01-27T15:31:13.949Z,1.10
2023-01-27T15:33:52.794Z,1.20
2023-01-27T15:36:28.261Z,2.42
2023-01-27T15:39:10.025Z,1.70
2023-01-27T15:41:54.270Z,1.25
2023-01-27T15:44:32.313Z,1.25
2023-01-27T15:47:21.819Z,1.48
2023-01-27T15:50:10.741Z,1.88
2023-01-27T15:52:48.565Z,1.63
2023-01-27T15:55:31.314Z,2.05
2023-01-27T15:58:09.946Z,2.22
2023-01-27T16:00:40.082Z,1.80
2023-01-27T16:03:25.042Z,1.60
2023-01-27T16:05:56.515Z,1.73
2023-01-27T16:08:25.724Z,1.50
2023-01-27T16:11:12.314Z,1.60
2023-01-27T16:13:39.293Z,2.55
2023-01-27T16:16:34.217Z,2.10
2023-01-27T16:19:16.097Z,1.92
2023-01-27T16:21:50.799Z,2.13
2023-01-27T16:24:31.298Z,1.70
2023-01-27T16:27:06.587Z,2.72
2023-01-27T16:29:39.373Z,4.05
2023-01-27T16:32:14.943Z,2.63
2023-01-27T16:34:50.414Z,3.33
2023-01-27T16:37:30.500Z,3.10
2023-01-27T16:40:09.322Z,3.38
2023-01-27T16:42:53.803Z,2.45
2023-01-27T16:45:23.781Z,3.50
2023-01-27T16:48:03.667Z,2.78
2023-01-27T16:50:41.831Z,3.33
2023-01-27T16:53:19.562Z,3.47
2023-01-27T16:55:57.466Z,3.53
2023-01-27T16:58:32.414Z,3.33
2023-01-27T17:01:03.049Z,3.92
2023-01-27T17:03:37.968Z,3.40
2023-01-27T17:06:14.410Z,3.55
2023-01-27T17:08:46.265Z,3.35
2023-01-27T17:11:23.714Z,4.13
2023-01-27T17:13:56.286Z,5.95
2023-01-27T17:16:32.313Z,6.45
2023-01-27T17:19:26.806Z,4.90
2023-01-27T17:22:32.103Z,8.20
2023-01-27T17:25:04.873Z,17.50
2023-01-27T17:27:36.106Z,15.35
2023-01-27T17:30:18.467Z,10.98
2023-01-27T17:32:51.117Z,6.93
2023-01-27T17:35:20.833Z,9.27
2023-01-27T17:37:47.523Z,7.47
2023-01-27T17:40:17.578Z,9.63
2023-01-27T17:42:45.147Z,10.00
2023-01-27T17:45:28.747Z,6.38
2023-01-27T17:47:59.630Z,6.07
2023-01-27T17:50:37.063Z,6.05
2023-01-27T17:53:10.004Z,11.65
2023-01-27T17:55:37.151Z,9.30
2023-01-27T17:58:11.907Z,7.75
2023-01-27T18:00:41.217Z,20.30
2023-01-27T18:03:19.980Z,16.20
2023-01-27T18:05:49.859Z,24.02
2023-01-27T18:08:18.740Z,13.93
2023-01-27T18:10:46.365Z,7.15
2023-01-27T18:13:18.987Z,4.90
2023-01-27T18:15:59.906Z,4.00
2023-01-27T18:18:34.455Z,5.70
2023-01-27T18:21:05.352Z,4.95
2023-01-27T18:23:46.425Z,4.60
2023-01-27T18:26:51.456Z,4.85
2023-01-27T18:29:22.596Z,6.13
2023-01-27T18:31:56.646Z,5.13
2023-01-27T18:34:34.092Z,3.75
2023-01-27T18:37:06.033Z,5.95
2023-01-27T18:39:36.256Z,4.93
2023-01-27T18:42:10.017Z,4.80
2023-01-27T18:44:37.119Z,3.70
2023-01-27T18:47:34.236Z,4.10
2023-01-27T18:50:16.855Z,4.90
2023-01-27T18:52:44.109Z,4.20
2023-01-27T18:55:17.928Z,4.20
2023-01-27T18:57:46.297Z,4.50
2023-01-27T19:00:19.684Z,4.20
2023-01-27T19:02:49.008Z,3.75
2023-01-27T19:05:21.801Z,4.57
2023-01-27T19:07:48.665Z,3.92
2023-01-27T19:10:18.829Z,4.30
2023-01-27T19:12:45.838Z,4.50
2023-01-27T19:15:15.096Z,4.70
2023-01-27T19:17:44.362Z,4.35
2023-01-27T19:20:19.992Z,5.15
2023-01-27T19:22:48.965Z,5.82
2023-01-27T19:25:16.268Z,6.35
2023-01-27T19:27:47.270Z,5.85
2023-01-27T19:30:40.614Z,6.05
2023-01-27T19:33:21.678Z,6.20
2023-01-27T19:35:55.696Z,5.00
2023-01-27T19:38:25.560Z,5.30
2023-01-27T19:40:52.380Z,5.13
2023-01-27T19:43:19.281Z,6.00
2023-01-27T19:45:47.942Z,5.78
2023-01-27T19:48:23.162Z,4.97
2023-01-27T19:50:51.639Z,7.32
2023-01-27T19:53:19.736Z,5.70
2023-01-27T19:55:50.161Z,5.95
2023-01-27T19:58:23.132Z,6.00
2023-01-27T20:00:50.187Z,7.32
2023-01-27T20:03:17.208Z,6.13
2023-01-27T20:05:44.285Z,6.93
2023-01-27T20:08:19.436Z,7.07
2023-01-27T20:13:20.691Z,7.07
2023-01-27T20:15:50.661Z,7.07
2023-01-27T20:18:18.305Z,5.82
2023-01-27T20:20:46.578Z,6.63
2023-01-27T20:23:16.528Z,7.43
2023-01-27T20:25:43.247Z,5.85
2023-01-27T20:28:10.476Z,5.82
2023-01-27T20:30:37.317Z,5.88
2023-01-27T20:35:45.338Z,6.15
2023-01-27T20:38:12.135Z,5.20
2023-01-27T20:40:38.835Z,6.07
2023-01-27T20:43:05.491Z,5.90
2023-01-27T20:45:32.529Z,5.80
2023-01-27T20:47:59.753Z,5.50
2023-01-27T20:50:26.704Z,5.78
2023-01-27T20:52:53.723Z,5.35
2023-01-27T20:55:20.354Z,5.85
2023-01-27T20:57:47.586Z,6.25
2023-01-27T21:00:19.734Z,5.70
2023-01-27T21:02:46.707Z,4.70
2023-01-27T21:05:14.354Z,5.00
2023-01-27T21:07:41.354Z,4.60
2023-01-27T21:10:08.927Z,5.05
2023-01-27T21:12:35.655Z,5.38
2023-01-27T21:15:03.316Z,6.53
2023-01-27T21:17:29.897Z,5.03
2023-01-27T21:19:56.558Z,5.82
2023-01-27T21:22:23.216Z,4.47
2023-01-27T21:24:49.803Z,4.47
2023-01-27T21:27:16.571Z,4.75
2023-01-27T21:29:43.995Z,4.10
2023-01-27T21:32:10.722Z,4.32
2023-01-27T21:34:37.429Z,4.15
2023-01-27T21:37:04.273Z,5.25
2023-01-27T21:39:31.002Z,5.07
2023-01-27T21:41:57.763Z,5.53
2023-01-27T21:44:45.229Z,5.60
2023-01-27T21:47:14.818Z,5.13
2023-01-27T21:50:01.586Z,4.80
2023-01-27T21:52:39.409Z,3.90
2023-01-27T21:55:09.165Z,4.45
2023-01-27T21:57:36.076Z,4.20
2023-01-27T22:00:05.182Z,4.40
2023-01-27T22:02:32.117Z,5.50
2023-01-27T22:04:58.865Z,4.07
2023-01-27T22:07:26.974Z,5.72
2023-01-27T22:09:53.751Z,4.93
2023-01-27T22:12:22.128Z,5.68
2023-01-27T22:14:49.297Z,5.32
2023-01-27T22:17:17.092Z,5.30
2023-01-27T22:19:45.622Z,6.57
2023-01-27T22:22:13.539Z,5.00
2023-01-27T22:24:40.418Z,5.60
2023-01-27T22:27:07.144Z,5.90
2023-01-27T22:29:33.899Z,5.07
2023-01-27T22:32:00.519Z,4.82
2023-01-27T22:34:27.233Z,5.63
2023-01-27T22:36:53.873Z,4.30
2023-01-27T22:39:20.651Z,5.20
2023-01-27T22:41:47.488Z,6.07
2023-01-27T22:44:14.479Z,4.40
2023-01-27T22:46:42.570Z,4.93
2023-01-27T22:49:10.771Z,6.38
2023-01-27T22:51:37.943Z,4.82
2023-01-27T22:54:04.794Z,4.60
2023-01-27T22:56:31.422Z,4.68
2023-01-27T22:58:58.124Z,5.07
2023-01-27T23:01:24.715Z,5.47
2023-01-27T23:03:51.496Z,6.32
2023-01-27T23:06:18.188Z,5.53
2023-01-27T23:08:44.789Z,5.15
2023-01-27T23:11:12.063Z,4.90
2023-01-27T23:13:38.808Z,4.57
2023-01-27T23:16:05.885Z,5.40
2023-01-27T23:18:32.864Z,5.53
2023-01-27T23:21:08.017Z,5.40
